HNL weather

Daniel K Inouye International Airport
Honolulu, Hawaii, United States

Public forecast

Using degrees Fahrenheit for public forecast. Weather courtesy of forecast.io.

METAR (pilot weather report)

Retrieved 2017/10/24 06:42 UTC (0 seconds ago):

PHNL 240642Z 34004KT 6SM -RA BR FEW008 BKN024 OVC035 21/18 A2987

TAF (pilot weather forecast)

Retrieved 2017/10/24 06:48 UTC (0 seconds ago):

TAF PHNL 240544Z 2406/2512 15008KT 6SM -RA VCTS SCT020CB BKN035 TEMPO 2406/2409 2SM RA BR BKN015 OVC030 FM240900 22010KT 6SM -SHRA BKN025 BKN050 FM241300 33010G20KT P6SM VCSH SCT030 BKN050 FM242000 02012KT P6SM VCSH SCT030 BKN070 FM250400 35005KT P6SM VCSH BKN030